AirNav   Air Wisconsin Up To $57,000 Bonus
 
 428 users online  

5II1 Layne Field Airport
New Winchester, Indiana, USA

GOING TO NEW WINCHESTER?


FAA INFORMATION EFFECTIVE 26 JANUARY 2023

Location

FAA Identifier: 5II1
Lat/Long: 39-46-58.1640N 086-37-03.0080W
39-46.969400N 086-37.050133W
39.7828233,-86.6175022
(estimated)
Elevation: 905 ft. / 276 m (estimated)
Variation: 01W (1985)
From city: 2 miles NE of NEW WINCHESTER, IN
Time zone: UTC -5 (UTC -4 during Daylight Saving Time)
Zip code: 46122

Airport Operations

Airport use: Private use. Permission required prior to landing
Activation date: 12/1990
Control tower: no
ARTCC: INDIANAPOLIS CENTER
FSS: TERRE HAUTE FLIGHT SERVICE STATION
Attendance: UNATNDD
Wind indicator: yes
Segmented circle: no

Airport Communications

WX AWOS-3P at 2R2 (7 nm E): 118.025 (317-718-4872)
WX AWOS-3PT at GPC (13 nm SW): 118.125 (765-653-1789)
WX ASOS at EYE (15 nm E): 121.575 (317-329-1754)
WX ASOS at IND (15 nm E): PHONE 317-241-0348
WX AWOS-3PT at CFJ (18 nm NW): 125.650 (765-362-2967)

Nearby radio navigation aids

VOR radial/distance  VOR name  Freq  Var
VHPr260/11.7BRICKYARD VORTAC116.3001E
TTHr057/34.1TERRE HAUTE VORTAC115.3002E
SHBr283/37.7SHELBYVILLE VOR/DME116.1501E
OOMr002/38.3HOOSIER VORTAC110.2002W

 
NDB name  Hdg/Dist  Freq  Var  ID
CRAWFORDSVILLE135/18.238804WCFJ -.-. ..-. .---
METROPOLITAN253/27.733803WUMP ..- -- .--.

Airport Services

Runway Information

Runway 18/36

Dimensions: 2800 x 100 ft. / 853 x 30 m
Surface: turf
RUNWAY 18  RUNWAY 36
Traffic pattern: leftright

Airport Ownership and Management from official FAA records

Ownership: Privately-owned
Owner: JOHN A. LAYNE
9 TODD TER
DANVILLE, IN 46122-1043
Phone 765-301-0360
Manager: JOHN A. LAYNE
9 TODD TER
DANVILLE, IN 46122-1043
Phone 765-301-0360

Airport Operational Statistics

Aircraft based on the field: 1
Single engine airplanes: 1
    

Additional Remarks

FOR CD CTC INDIANAPOLIS APCH AT 317-227-5743.

Instrument Procedures

There are no published instrument procedures at 5II1.

Some nearby airports with instrument procedures:

2R2 - Hendricks County Airport-Gordon Graham Field (7 nm E)
KGPC - Putnam County Regional Airport (13 nm SW)
KEYE - Eagle Creek Airpark (15 nm E)
KIND - Indianapolis International Airport (15 nm E)
KCFJ - Crawfordsville Regional Airport (18 nm NW)
 
Loc | Ops | Rwys | IFR | FBO | Links
Com | Nav | Svcs | Stats | Notes
Area around 5II1 (Layne Field Airport)
 
Road maps at: MapQuest Bing Google
 
Aerial photo
No photo
 
Sectional chart

 
Airport distance calculator
Flying to Layne Field Airport? Find the distance to fly.

From to 5II1

Sunrise and sunset
Times for 05-Feb-2023
 Local
(UTC-5)
 Zulu
(UTC)
Morning civil twilight07:2312:23
Sunrise07:5212:52
Sunset18:0923:09
Evening civil twilight18:3823:38

Current date and time
Zulu (UTC)  05-Feb-2023 08:08:06
Local (UTC-5)  05-Feb-2023 03:08:06
 
METAR
KGPC 
13nm SW 
050755Z AUTO 21011G20KT 10SM CLR 03/M04 A3006 RMK AO2 T00311038
KEYE 
15nm E 
050753Z AUTO 20013G23KT 10SM CLR 04/M04 A3004 RMK AO2 SLP178 T00441044 $
KIND 
16nm E 
050754Z 22014G22KT 10SM SCT250 04/M05 A3006 RMK AO2 SLP182 T00391050
KCFJ 
18nm NW 
050755Z AUTO 21014KT 10SM 02/M07 A3004 RMK AO2 T00151073
KTYQ 
22nm NE 
050755Z AUTO 21016G23KT 10SM CLR 03/M04 A3004 RMK AO2 T00321041
TAF
KIND 
16nm E 
050520Z 0506/0612 20016G27KT P6SM BKN210 WS020/23050KT FM051700 23015G23KT P6SM OVC020 FM052000 24014KT P6SM BKN020 FM052300 25011KT P6SM BKN070 FM060700 34006KT P6SM BKN020
NOTAMs
Click for the latest NOTAMs
NOTAMs are issued by the DoD/FAA and will open in a separate window not controlled by AirNav.

 

 
 

Would you like to see your business listed on this page?

 If your business provides an interesting product or service to pilots, flight crews, aircraft, or users of the Layne Field Airport, you should consider listing it here.  To start the listing process, click on the button below
 
Add a business
 

Other Pages about Layne Field Airport

Update a link
 
Copyright © AirNav, LLC. All rights reserved. Privacy Policy  Contact